Time;durP1;ratioP1;P1;durP2;ratioP2;P2;SDS_P1;SDS_P2;PMS_P1;PMS_P2;Temp;Humidity;BMP_temperature;BMP_pressure;BME280_temperature;BME280_humidity;BME280_pressure;Samples;Min_cycle;Max_cycle;Signal;HPM_P1;HPM_P2
2023/12/02 00:00:26;;;;;;;3.60;3.40;;;;;;;1.88;100.00;95023.06;5075369;28;20238;-53
2023/12/02 00:02:53;;;;;;;4.03;3.73;;;;;;;1.92;100.00;95019.25;5075959;28;20219;-53
2023/12/02 00:05:20;;;;;;;3.43;3.23;;;;;;;1.92;100.00;95010.59;5075887;28;20320;-54
2023/12/02 00:07:46;;;;;;;3.83;3.60;;;;;;;1.85;100.00;95012.06;5075485;28;20670;-53
2023/12/02 00:10:13;;;;;;;3.57;3.37;;;;;;;1.87;100.00;95016.22;5074838;28;20682;-53
2023/12/02 00:12:40;;;;;;;3.27;3.07;;;;;;;1.86;100.00;95016.34;5074747;28;20609;-52
2023/12/02 00:15:08;;;;;;;3.60;3.40;;;;;;;1.84;100.00;95011.22;5074425;28;20205;-52
2023/12/02 00:17:35;;;;;;;3.87;3.57;;;;;;;1.80;100.00;95009.03;5074486;28;20206;-52
2023/12/02 00:20:05;;;;;;;3.27;3.07;;;;;;;1.81;100.00;95011.50;5074605;28;20223;-52
2023/12/02 00:22:32;;;;;;;3.33;3.13;;;;;;;1.84;100.00;95010.44;5067586;28;20267;-53
2023/12/02 00:24:59;;;;;;;5.27;3.20;;;;;;;1.84;100.00;95010.44;5073686;28;20217;-52
2023/12/02 00:27:26;;;;;;;3.47;3.27;;;;;;;1.88;100.00;95010.03;5074881;28;20305;-52
2023/12/02 00:29:54;;;;;;;3.10;2.90;;;;;;;1.85;100.00;95009.47;5074676;28;20210;-51
2023/12/02 00:32:22;;;;;;;3.30;3.10;;;;;;;1.85;100.00;95010.28;5074683;28;20237;-53
2023/12/02 00:34:49;;;;;;;3.53;3.33;;;;;;;1.86;100.00;95005.91;5074324;28;20297;-54
2023/12/02 00:37:15;;;;;;;3.43;3.23;;;;;;;1.84;100.00;95011.22;5074088;28;20320;-54
2023/12/02 00:39:42;;;;;;;3.13;2.93;;;;;;;1.87;100.00;95016.22;5074894;28;20223;-53
2023/12/02 00:42:09;;;;;;;3.40;3.20;;;;;;;1.88;100.00;95023.06;5074209;28;20300;-52
2023/12/02 00:44:35;;;;;;;3.60;3.40;;;;;;;1.97;100.00;95021.47;5071601;28;20267;-53
2023/12/02 00:47:02;;;;;;;3.63;3.33;;;;;;;1.89;100.00;95018.66;5077408;28;20612;-53
2023/12/02 00:49:29;;;;;;;3.40;3.20;;;;;;;1.91;100.00;95027.19;5074628;28;20210;-53
2023/12/02 00:51:56;;;;;;;3.60;3.37;;;;;;;1.93;100.00;95040.91;5074393;28;20213;-54
2023/12/02 00:54:23;;;;;;;3.70;3.40;;;;;;;1.85;100.00;95044.16;5073498;28;20206;-54
2023/12/02 00:56:51;;;;;;;2.90;2.77;;;;;;;1.85;100.00;95044.16;5074626;28;20202;-53
2023/12/02 00:59:20;;;;;;;3.60;3.40;;;;;;;1.87;100.00;95039.66;5074396;28;20234;-52
2023/12/02 01:01:46;;;;;;;3.40;3.20;;;;;;;1.95;100.00;95033.78;5074451;28;20225;-52
2023/12/02 01:04:13;;;;;;;3.10;2.90;;;;;;;1.91;100.00;95035.03;5074592;28;20300;-53
2023/12/02 01:06:41;;;;;;;3.33;3.13;;;;;;;1.86;100.00;95040.63;5074318;28;20237;-53
2023/12/02 01:09:08;;;;;;;3.10;2.90;;;;;;;1.89;100.00;95035.13;5074255;28;20218;-52
2023/12/02 01:11:34;;;;;;;2.80;2.70;;;;;;;1.83;100.00;95038.28;5074613;28;20215;-51
2023/12/02 01:14:01;;;;;;;2.70;2.60;;;;;;;1.84;100.00;95047.72;5074293;28;20244;-52
2023/12/02 01:16:30;;;;;;;2.70;2.60;;;;;;;1.82;100.00;95044.44;5074468;28;20507;-52
2023/12/02 01:18:56;;;;;;;2.90;2.80;;;;;;;1.83;100.00;95045.25;5074841;28;20216;-50
2023/12/02 01:21:23;;;;;;;2.80;2.70;;;;;;;1.81;100.00;95052.38;5074550;28;20282;-51
2023/12/02 01:23:51;;;;;;;2.50;2.40;;;;;;;1.83;100.00;95048.69;5074974;28;20241;-52
2023/12/02 01:26:18;;;;;;;2.83;2.67;;;;;;;1.83;100.00;95050.47;5078930;28;20334;-51
2023/12/02 01:28:45;;;;;;;2.93;2.73;;;;;;;1.83;100.00;95043.47;5080501;28;20206;-53
2023/12/02 01:31:12;;;;;;;2.40;2.30;;;;;;;1.87;100.00;95046.66;5081724;28;20308;-53
2023/12/02 01:33:41;;;;;;;2.40;2.30;;;;;;;1.85;100.00;95048.53;5080285;28;20301;-52
2023/12/02 01:36:11;;;;;;;2.43;2.33;;;;;;;1.87;100.00;95059.69;5080531;28;20202;-53
2023/12/02 01:38:38;;;;;;;2.90;2.70;;;;;;;1.86;100.00;95066.69;5077819;28;20202;-52
2023/12/02 01:41:06;;;;;;;2.60;2.50;;;;;;;1.84;100.00;95067.78;5080862;28;20206;-52
2023/12/02 01:43:32;;;;;;;2.70;2.60;;;;;;;1.84;100.00;95065.97;5080796;28;20278;-53
2023/12/02 01:45:59;;;;;;;2.33;2.20;;;;;;;1.85;100.00;95072.84;5077355;28;20628;-53
2023/12/02 01:48:27;;;;;;;2.43;2.33;;;;;;;1.83;100.00;95077.38;5076965;28;20305;-53
2023/12/02 01:50:54;;;;;;;3.23;2.93;;;;;;;1.82;100.00;95086.13;5076454;28;20199;-54
2023/12/02 01:53:20;;;;;;;2.80;2.60;;;;;;;1.84;100.00;95073.78;5077370;28;20206;-52
2023/12/02 01:55:47;;;;;;;2.60;2.50;;;;;;;1.86;100.00;95076.28;5084223;28;20228;-53
2023/12/02 01:58:15;;;;;;;2.97;2.77;;;;;;;1.83;100.00;95077.38;5091806;28;20270;-54
2023/12/02 02:00:43;;;;;;;2.57;2.47;;;;;;;1.83;100.00;95071.31;5092295;28;20206;-51
2023/12/02 02:03:10;;;;;;;2.57;2.47;;;;;;;1.85;100.00;95077.22;5093771;28;20221;-53
2023/12/02 02:05:37;;;;;;;2.73;2.50;;;;;;;1.79;100.00;95081.19;5078227;28;20221;-53
2023/12/02 02:08:04;;;;;;;2.60;2.50;;;;;;;1.77;100.00;95085.66;5077790;28;20247;-53
2023/12/02 02:10:31;;;;;;;2.43;2.33;;;;;;;1.78;100.00;95079.50;5100551;28;20261;-52
2023/12/02 02:12:58;;;;;;;3.10;2.90;;;;;;;1.82;100.00;95080.91;5101102;28;20182;-52
2023/12/02 02:15:31;;;;;;;2.83;2.70;;;;;;;1.88;100.00;95077.78;5101487;28;20206;-53
2023/12/02 02:17:57;;;;;;;2.93;2.73;;;;;;;1.78;100.00;95069.09;5100939;28;20254;-53
2023/12/02 02:20:24;;;;;;;2.93;2.73;;;;;;;1.74;100.00;95085.94;5089435;28;20194;-53
2023/12/02 02:22:52;;;;;;;2.63;2.53;;;;;;;1.76;100.00;95097.06;5076659;28;20203;-53
2023/12/02 02:25:18;;;;;;;2.57;2.47;;;;;;;1.76;100.00;95086.66;5077131;28;20214;-52
2023/12/02 02:27:47;;;;;;;2.53;2.43;;;;;;;1.77;100.00;95077.84;5076953;28;20222;-53
2023/12/02 02:30:14;;;;;;;2.40;2.30;;;;;;;1.74;100.00;95078.13;5077048;28;20214;-54
2023/12/02 02:32:41;;;;;;;2.43;2.23;;;;;;;1.76;100.00;95085.81;5076942;28;20210;-53
2023/12/02 02:35:08;;;;;;;2.70;2.60;;;;;;;1.80;100.00;95085.44;5076939;28;20292;-53
2023/12/02 02:37:37;;;;;;;2.17;2.07;;;;;;;1.79;100.00;95086.38;5075686;28;20624;-53
2023/12/02 02:40:07;;;;;;;2.60;2.50;;;;;;;1.76;100.00;95084.03;5076891;28;20299;-53
2023/12/02 02:42:34;;;;;;;2.40;2.20;;;;;;;1.76;100.00;95091.84;5076350;28;20252;-53
2023/12/02 02:45:00;;;;;;;2.00;1.90;;;;;;;1.79;100.00;95094.19;5082945;28;20211;-54
2023/12/02 02:47:27;;;;;;;1.90;1.80;;;;;;;1.74;100.00;95100.72;5083276;28;20311;-54
2023/12/02 02:49:54;;;;;;;1.97;1.87;;;;;;;1.78;100.00;95095.16;5076234;28;20217;-51
2023/12/02 02:52:20;;;;;;;1.80;1.70;;;;;;;1.80;100.00;95082.84;5075895;28;20210;-53
2023/12/02 02:54:47;;;;;;;1.80;1.70;;;;;;;1.85;100.00;95083.25;5076583;28;20214;-53
2023/12/02 02:57:15;;;;;;;1.70;1.60;;;;;;;1.82;100.00;95083.53;5076415;28;20209;-54
2023/12/02 02:59:41;;;;;;;1.87;1.77;;;;;;;1.82;100.00;95096.53;5075965;28;20238;-53
2023/12/02 03:02:08;;;;;;;1.93;1.73;;;;;;;1.84;100.00;95110.25;5077812;28;20211;-53
2023/12/02 03:04:35;;;;;;;1.87;1.77;;;;;;;1.91;100.00;95124.44;5077163;28;20206;-52
2023/12/02 03:07:01;;;;;;;2.00;1.90;;;;;;;2.00;100.00;95138.50;5075999;28;20233;-53
2023/12/02 03:09:28;;;;;;;2.17;2.07;;;;;;;1.94;100.00;95137.25;5081289;28;20544;-53
2023/12/02 03:11:54;;;;;;;2.10;2.00;;;;;;;1.85;100.00;95131.94;5075913;28;20646;-53
2023/12/02 03:14:22;;;;;;;2.20;2.10;;;;;;;1.83;100.00;95123.44;5075832;28;20623;-53
2023/12/02 03:16:49;;;;;;;1.80;1.70;;;;;;;1.87;100.00;95125.66;5082446;28;20206;-54
2023/12/02 03:19:16;;;;;;;1.87;1.77;;;;;;;1.86;100.00;95128.41;5076108;28;20208;-53
2023/12/02 03:21:42;;;;;;;1.73;1.63;;;;;;;1.84;100.00;95125.91;5072475;28;20209;-52
2023/12/02 03:24:09;;;;;;;2.30;2.10;;;;;;;1.82;100.00;95133.03;5076520;28;20214;-53
2023/12/02 03:26:36;;;;;;;1.70;1.60;;;;;;;1.79;100.00;95128.06;5082358;28;20233;-54
2023/12/02 03:29:03;;;;;;;1.90;1.80;;;;;;;1.76;100.00;95128.34;5082479;28;20209;-53
2023/12/02 03:31:31;;;;;;;1.90;1.80;;;;;;;1.74;100.00;95135.44;5087725;28;20301;-53
2023/12/02 03:33:57;;;;;;;2.27;2.17;;;;;;;1.77;100.00;95129.97;5075534;28;20206;-54
2023/12/02 03:36:24;;;;;;;2.00;1.90;;;;;;;1.82;100.00;95127.81;5075779;28;20293;-52
2023/12/02 03:38:52;;;;;;;1.50;1.50;;;;;;;1.81;100.00;95135.75;5076830;28;20206;-53
2023/12/02 03:41:18;;;;;;;1.67;1.60;;;;;;;1.78;100.00;95136.84;5082235;28;20657;-54
2023/12/02 03:43:45;;;;;;;1.30;1.30;;;;;;;1.77;100.00;95134.38;5075745;28;20703;-52
2023/12/02 03:46:11;;;;;;;1.90;1.80;;;;;;;1.75;100.00;95138.88;5078373;28;20225;-51
2023/12/02 03:48:39;;;;;;;1.67;1.60;;;;;;;1.81;100.00;95156.59;5074677;28;20209;-53
2023/12/02 03:51:06;;;;;;;1.80;1.70;;;;;;;1.77;100.00;95156.03;5086130;28;20236;-53
2023/12/02 03:53:35;;;;;;;1.80;1.70;;;;;;;1.74;100.00;95171.91;5087959;28;20286;-52
2023/12/02 03:56:02;;;;;;;1.80;1.70;;;;;;;1.71;100.00;95166.13;5087412;28;20206;-51
2023/12/02 03:58:32;;;;;;;1.87;1.73;;;;;;;1.69;100.00;95179.31;5074008;28;20586;-52
2023/12/02 04:01:00;;;;;;;1.80;1.70;;;;;;;1.73;100.00;95182.47;5075161;28;20570;-52
2023/12/02 04:03:26;;;;;;;1.60;1.50;;;;;;;1.72;100.00;95184.25;5075345;28;20206;-53
2023/12/02 04:05:54;;;;;;;1.43;1.43;;;;;;;1.74;100.00;95191.94;5075285;28;20233;-53
2023/12/02 04:08:21;;;;;;;1.70;1.60;;;;;;;1.78;100.00;95199.38;5074605;28;20554;-53
2023/12/02 04:10:50;;;;;;;1.70;1.60;;;;;;;1.76;100.00;95201.28;5075060;28;20300;-50
2023/12/02 04:13:16;;;;;;;1.63;1.53;;;;;;;1.79;100.00;95206.25;5074713;28;20221;-54
2023/12/02 04:15:44;;;;;;;1.70;1.60;;;;;;;1.76;100.00;95206.50;5075090;28;20296;-51
2023/12/02 04:18:12;;;;;;;1.80;1.70;;;;;;;1.83;100.00;95205.06;5074952;28;20698;-51
2023/12/02 04:20:40;;;;;;;2.27;2.17;;;;;;;1.77;100.00;95202.94;5078534;28;20210;-53
2023/12/02 04:23:08;;;;;;;1.70;1.60;;;;;;;1.79;100.00;95206.25;5083597;28;20201;-53
2023/12/02 04:25:35;;;;;;;1.73;1.63;;;;;;;1.79;100.00;95208.88;5083683;28;20256;-53
2023/12/02 04:28:02;;;;;;;1.80;1.70;;;;;;;1.79;100.00;95206.25;5080521;28;20226;-53
2023/12/02 04:30:29;;;;;;;1.63;1.53;;;;;;;1.74;100.00;95207.56;5074651;28;20545;-53
2023/12/02 04:32:55;;;;;;;1.73;1.70;;;;;;;1.72;100.00;95205.09;5074693;28;20205;-53
2023/12/02 04:35:22;;;;;;;1.77;1.67;;;;;;;1.64;100.00;95204.88;5074344;28;20296;-51
2023/12/02 04:37:48;;;;;;;2.10;2.00;;;;;;;1.66;100.00;95200.41;5074337;28;20202;-52
2023/12/02 04:40:16;;;;;;;1.90;1.80;;;;;;;1.65;100.00;95203.13;5074820;28;20209;-53
2023/12/02 04:42:43;;;;;;;2.10;2.00;;;;;;;1.69;100.00;95210.56;5074724;28;20218;-53
2023/12/02 04:45:10;;;;;;;2.17;2.07;;;;;;;1.67;100.00;95209.00;5061262;28;20202;-53
2023/12/02 04:47:37;;;;;;;2.10;2.00;;;;;;;1.62;100.00;95214.63;5082029;28;20279;-53
2023/12/02 04:50:04;;;;;;;2.07;1.90;;;;;;;1.63;100.00;95226.66;5076862;28;20567;-53
2023/12/02 04:52:31;;;;;;;1.97;1.87;;;;;;;1.65;100.00;95223.97;5076411;28;20205;-53
2023/12/02 04:54:57;;;;;;;1.73;1.63;;;;;;;1.65;100.00;95224.78;5077668;28;20708;-51
2023/12/02 04:57:26;;;;;;;1.67;1.60;;;;;;;1.60;100.00;95237.34;5076251;28;20559;-53
2023/12/02 04:59:52;;;;;;;2.00;1.90;;;;;;;1.63;100.00;95234.50;5075638;28;20327;-53
2023/12/02 05:02:20;;;;;;;1.90;1.80;;;;;;;1.70;100.00;95240.06;5075229;28;20705;-51
2023/12/02 05:04:47;;;;;;;2.03;1.93;;;;;;;1.62;100.00;95245.88;5074519;28;20202;-53
2023/12/02 05:07:13;;;;;;;1.40;1.40;;;;;;;1.64;100.00;95250.94;5073944;28;20229;-53
2023/12/02 05:09:40;;;;;;;2.00;1.90;;;;;;;1.59;100.00;95251.34;5074287;28;20301;-51
2023/12/02 05:12:07;;;;;;;2.10;2.00;;;;;;;1.58;100.00;95254.88;5074208;28;20236;-53
2023/12/02 05:14:35;;;;;;;2.10;2.00;;;;;;;1.60;100.00;95258.19;5074142;28;20303;-53
2023/12/02 05:17:03;;;;;;;2.00;1.90;;;;;;;1.59;100.00;95251.34;5074361;28;20292;-51
2023/12/02 05:19:30;;;;;;;2.13;2.03;;;;;;;1.58;100.00;95260.09;5074173;28;20236;-52
2023/12/02 05:21:56;;;;;;;2.37;2.27;;;;;;;1.64;100.00;95258.75;5073914;28;20286;-52
2023/12/02 05:24:23;;;;;;;2.23;2.13;;;;;;;1.63;100.00;95257.94;5073769;28;20228;-53
2023/12/02 05:26:49;;;;;;;2.80;2.60;;;;;;;1.64;100.00;95259.59;5074107;28;20369;-53
2023/12/02 05:29:16;;;;;;;2.70;2.50;;;;;;;1.49;100.00;95251.22;5073428;28;20228;-52
2023/12/02 05:31:44;;;;;;;2.30;2.20;;;;;;;1.51;100.00;95261.53;5073587;28;20220;-53
2023/12/02 05:34:10;;;;;;;2.30;2.20;;;;;;;1.55;100.00;95252.53;5074083;28;20224;-52
2023/12/02 05:36:37;;;;;;;2.50;2.40;;;;;;;1.57;100.00;95257.59;5074095;28;20228;-53
2023/12/02 05:39:03;;;;;;;2.90;2.70;;;;;;;1.57;100.00;95263.66;5073601;28;20231;-52
2023/12/02 05:41:30;;;;;;;2.50;2.40;;;;;;;1.52;100.00;95253.59;5074120;28;20202;-54
2023/12/02 05:43:57;;;;;;;2.83;2.63;;;;;;;1.52;100.00;95265.81;5072777;28;20332;-53
2023/12/02 05:46:24;;;;;;;2.90;2.70;;;;;;;1.54;100.00;95269.09;5073265;28;20202;-53
2023/12/02 05:48:52;;;;;;;2.87;2.67;;;;;;;1.58;100.00;95280.94;5074786;28;20572;-52
2023/12/02 05:51:19;;;;;;;2.70;2.50;;;;;;;1.59;100.00;95286.97;5069420;28;20605;-53
2023/12/02 05:53:45;;;;;;;3.20;3.00;;;;;;;1.64;100.00;95290.88;5077260;28;20297;-53
2023/12/02 05:56:12;;;;;;;3.20;3.00;;;;;;;1.63;100.00;95304.84;5073463;28;20646;-52
2023/12/02 05:58:38;;;;;;;3.13;2.93;;;;;;;1.65;100.00;95310.75;5073550;28;20293;-53
2023/12/02 06:01:05;;;;;;;3.23;3.03;;;;;;;1.61;100.00;95311.94;5073468;28;20242;-52
2023/12/02 06:03:32;;;;;;;4.00;3.70;;;;;;;1.61;100.00;95311.94;5073481;28;20321;-52
2023/12/02 06:06:00;;;;;;;3.47;3.27;;;;;;;1.67;100.00;95326.25;5073464;28;20213;-53
2023/12/02 06:08:27;;;;;;;3.30;3.10;;;;;;;1.59;100.00;95331.28;5074607;28;20229;-52
2023/12/02 06:10:53;;;;;;;4.00;3.70;;;;;;;1.57;100.00;95335.75;5079910;28;20211;-51
2023/12/02 06:13:20;;;;;;;3.40;3.20;;;;;;;1.61;100.00;95332.78;5083120;28;20553;-53
2023/12/02 06:15:47;;;;;;;3.97;3.60;;;;;;;1.54;100.00;95330.78;5077385;28;20210;-52
2023/12/02 06:18:13;;;;;;;4.00;3.70;;;;;;;1.50;100.00;95325.00;5076890;28;20271;-53
2023/12/02 06:20:40;;;;;;;3.70;3.40;;;;;;;1.47;100.00;95341.69;5076556;28;20649;-52
2023/12/02 06:23:09;;;;;;;3.80;3.50;;;;;;;1.47;100.00;95340.88;5077463;28;20268;-54
2023/12/02 06:25:36;;;;;;;3.60;3.40;;;;;;;1.50;100.00;95340.63;5081978;28;20240;-54
2023/12/02 06:28:02;;;;;;;4.13;3.73;;;;;;;1.45;100.00;95346.19;5081395;28;20222;-52
2023/12/02 06:30:29;;;;;;;3.53;3.23;;;;;;;1.46;100.00;95354.81;5082162;28;20210;-54
2023/12/02 06:32:56;;;;;;;3.80;3.50;;;;;;;1.51;100.00;95357.91;5080785;28;20301;-54
2023/12/02 06:35:22;;;;;;;3.93;3.63;;;;;;;1.58;100.00;95364.31;5077273;28;20220;-53
2023/12/02 06:37:49;;;;;;;3.57;3.33;;;;;;;1.56;100.00;95365.38;5080092;28;20205;-53
2023/12/02 06:40:18;;;;;;;3.63;3.43;;;;;;;1.47;100.00;95370.34;5077010;28;20233;-53
2023/12/02 06:42:44;;;;;;;3.63;3.43;;;;;;;1.51;100.00;95368.34;5079802;28;20233;-55
2023/12/02 06:45:11;;;;;;;3.80;3.50;;;;;;;1.48;100.00;95376.38;5086177;28;20313;-52
2023/12/02 06:47:37;;;;;;;3.73;3.43;;;;;;;1.46;100.00;95380.88;5096617;28;20258;-54
2023/12/02 06:50:05;;;;;;;4.00;3.70;;;;;;;1.47;100.00;95385.97;5086438;28;20237;-55
2023/12/02 06:52:32;;;;;;;3.70;3.40;;;;;;;1.50;100.00;95387.50;5083929;28;20288;-54
2023/12/02 06:54:59;;;;;;;3.80;3.50;;;;;;;1.49;100.00;95391.06;5085911;28;20214;-57
2023/12/02 06:57:27;;;;;;;3.70;3.40;;;;;;;1.49;100.00;95397.09;5080898;28;20292;-51
2023/12/02 06:59:54;;;;;;;3.37;3.17;;;;;;;1.41;100.00;95389.06;5076094;28;20667;-54
2023/12/02 07:02:20;;;;;;;4.10;3.70;;;;;;;1.44;100.00;95406.22;5076258;28;20205;-53
2023/12/02 07:04:47;;;;;;;3.93;3.63;;;;;;;1.54;100.00;95406.34;5076344;28;20304;-52
2023/12/02 07:07:13;;;;;;;3.67;3.37;;;;;;;1.48;100.00;95405.03;5075859;28;20244;-52
2023/12/02 07:09:40;;;;;;;4.10;3.80;;;;;;;1.47;100.00;95403.38;5076046;28;20203;-53
2023/12/02 07:12:09;;;;;;;4.23;3.93;;;;;;;1.55;100.00;95408.84;5076912;28;20224;-53
2023/12/02 07:14:37;;;;;;;4.13;3.77;;;;;;;1.58;100.00;95412.97;5076703;28;20214;-52
2023/12/02 07:17:04;;;;;;;4.03;3.73;;;;;;;1.54;100.00;95414.97;5076205;28;20224;-53
2023/12/02 07:19:31;;;;;;;5.10;4.63;;;;;;;1.59;100.00;95412.88;5075779;28;20210;-53
2023/12/02 07:21:57;;;;;;;4.37;4.07;;;;;;;1.54;100.00;95422.78;5075905;28;20210;-53
2023/12/02 07:24:24;;;;;;;4.83;4.43;;;;;;;1.56;100.00;95418.28;5084843;28;20289;-53
2023/12/02 07:26:53;;;;;;;5.20;4.43;;;;;;;1.55;100.00;95437.50;5099333;28;20186;-53
2023/12/02 07:29:19;;;;;;;5.33;4.83;;;;;;;1.63;100.00;95442.91;5098547;28;20210;-54
2023/12/02 07:31:47;;;;;;;5.77;5.00;;;;;;;1.52;100.00;95440.34;5098098;28;20238;-53
2023/12/02 07:34:14;;;;;;;5.40;4.90;;;;;;;1.47;100.00;95452.88;5098153;28;20236;-54
2023/12/02 07:36:41;;;;;;;5.43;4.93;;;;;;;1.51;100.00;95446.47;5098730;28;20241;-53
2023/12/02 07:39:08;;;;;;;5.30;4.80;;;;;;;1.55;100.00;95468.75;5098278;28;20222;-53
2023/12/02 07:41:34;;;;;;;5.27;4.83;;;;;;;1.57;100.00;95466.84;5097898;28;20233;-53
2023/12/02 07:44:01;;;;;;;5.20;4.80;;;;;;;1.54;100.00;95464.47;5093150;28;20253;-53
2023/12/02 07:46:28;;;;;;;4.50;4.13;;;;;;;1.59;100.00;95474.56;5109739;28;20206;-53
2023/12/02 07:48:56;;;;;;;4.80;4.40;;;;;;;1.51;100.00;95477.75;5081409;28;20234;-53
2023/12/02 07:51:23;;;;;;;5.20;4.70;;;;;;;1.55;100.00;95486.97;5075449;28;20205;-52
2023/12/02 07:53:50;;;;;;;4.83;4.43;;;;;;;1.61;100.00;95490.88;5074895;28;20530;-52
2023/12/02 07:56:17;;;;;;;5.00;4.60;;;;;;;1.55;100.00;95493.97;5075434;28;20220;-53
2023/12/02 07:58:44;;;;;;;5.33;4.83;;;;;;;1.52;100.00;95503.66;5075325;28;20210;-51
2023/12/02 08:01:10;;;;;;;4.80;4.40;;;;;;;1.49;100.00;95505.66;5075042;28;20217;-52
2023/12/02 08:03:39;;;;;;;4.30;4.00;;;;;;;1.47;100.00;95503.19;5075096;28;20209;-51
2023/12/02 08:06:09;;;;;;;3.97;3.67;;;;;;;1.52;100.00;95515.03;5075689;28;20214;-51
2023/12/02 08:08:37;;;;;;;4.00;3.70;;;;;;;1.50;100.00;95515.16;5074284;28;20681;-52
2023/12/02 08:11:03;;;;;;;4.63;4.23;;;;;;;1.49;100.00;95519.53;5075375;28;20520;-53
2023/12/02 08:13:30;;;;;;;4.53;3.43;;;;;;;1.49;100.00;95522.13;5074905;28;20206;-53
2023/12/02 08:15:56;;;;;;;3.47;3.27;;;;;;;1.55;100.00;95515.63;5075116;28;20210;-54
2023/12/02 08:18:23;;;;;;;3.57;3.27;;;;;;;1.64;100.00;95529.72;5075629;28;20287;-53
2023/12/02 08:20:52;;;;;;;4.23;3.83;;;;;;;1.44;100.00;95532.09;5074918;28;20205;-52
2023/12/02 08:23:20;;;;;;;3.80;3.50;;;;;;;1.43;100.00;95533.00;5073843;28;20669;-53
2023/12/02 08:25:49;;;;;;;3.70;3.40;;;;;;;1.45;100.00;95530.31;5074502;28;20696;-53
2023/12/02 08:28:16;;;;;;;3.60;3.40;;;;;;;1.49;100.00;95547.34;5074422;28;20681;-53
2023/12/02 08:30:43;;;;;;;4.03;3.60;;;;;;;1.56;100.00;95543.31;5074902;28;20638;-53
2023/12/02 08:33:09;;;;;;;3.37;3.17;;;;;;;1.44;100.00;95555.53;5074803;28;20213;-53
2023/12/02 08:35:36;;;;;;;3.93;3.63;;;;;;;1.42;100.00;95556.56;5074083;28;20235;-52
2023/12/02 08:38:02;;;;;;;3.73;3.43;;;;;;;1.52;100.00;95561.94;5073951;28;20694;-52
2023/12/02 08:40:30;;;;;;;4.17;3.87;;;;;;;1.49;100.00;95565.56;5074690;28;20317;-53
2023/12/02 08:42:57;;;;;;;3.83;3.53;;;;;;;1.49;100.00;95568.19;5074560;28;20533;-52
2023/12/02 08:45:25;;;;;;;4.00;3.70;;;;;;;1.45;100.00;95569.38;5076163;28;20640;-53
2023/12/02 08:47:52;;;;;;;3.93;3.63;;;;;;;1.58;100.00;95577.94;5078057;28;20720;-53
2023/12/02 08:50:18;;;;;;;4.60;4.20;;;;;;;1.52;100.00;95578.41;5074594;28;20223;-53
2023/12/02 08:52:45;;;;;;;4.80;4.40;;;;;;;1.57;100.00;95586.69;5073996;28;20600;-53
2023/12/02 08:55:14;;;;;;;3.90;3.60;;;;;;;1.52;100.00;95581.00;5074105;28;20211;-51
2023/12/02 08:57:42;;;;;;;4.53;4.13;;;;;;;1.49;100.00;95587.25;5074366;28;20205;-54
2023/12/02 09:00:10;;;;;;;3.37;3.17;;;;;;;1.56;100.00;95590.22;5074512;28;20241;-51
2023/12/02 09:02:42;;;;;;;4.00;3.70;;;;;;;1.66;100.00;95595.59;5074378;28;20206;-53
2023/12/02 09:05:09;;;;;;;4.27;3.97;;;;;;;1.60;100.00;95599.47;5074250;28;20216;-53
2023/12/02 09:07:35;;;;;;;4.10;3.70;;;;;;;1.67;100.00;95603.28;5073836;28;20569;-53
2023/12/02 09:10:03;;;;;;;4.10;3.80;;;;;;;1.61;100.00;95601.16;5074472;28;20297;-53
2023/12/02 09:12:29;;;;;;;3.60;3.37;;;;;;;1.58;100.00;95611.81;5075983;28;20220;-53
2023/12/02 09:15:09;;;;;;;4.00;3.63;;;;;;;1.67;100.00;95611.09;5091068;28;20236;-54
2023/12/02 09:17:56;;;;;;;4.30;3.90;;;;;;;1.59;100.00;95618.69;5080358;28;20293;-51
2023/12/02 09:20:35;;;;;;;4.17;3.80;;;;;;;1.69;100.00;95622.25;5084847;28;20218;-51
2023/12/02 09:23:02;;;;;;;4.10;3.80;;;;;;;1.62;100.00;95631.47;5078470;28;20205;-54
2023/12/02 09:25:30;;;;;;;3.80;3.50;;;;;;;1.63;100.00;95625.31;5076298;28;20295;-53
2023/12/02 09:28:16;;;;;;;4.00;3.70;;;;;;;1.76;100.00;95633.06;5074915;28;20233;-53
2023/12/02 09:30:51;;;;;;;4.30;4.00;;;;;;;1.64;100.00;95640.00;5074574;28;20202;-54
2023/12/02 09:33:17;;;;;;;3.83;3.53;;;;;;;1.72;100.00;95645.47;5069645;28;20653;-52
2023/12/02 09:35:44;;;;;;;3.93;3.63;;;;;;;1.71;100.00;95651.63;5075368;28;20207;-52
2023/12/02 09:38:12;;;;;;;4.60;4.20;;;;;;;1.80;100.00;95648.34;5077510;28;20206;-52
2023/12/02 09:40:52;;;;;;;5.00;4.60;;;;;;;1.80;100.00;95650.13;5078781;28;20571;-54
2023/12/02 09:43:27;;;;;;;3.73;3.50;;;;;;;1.66;100.00;95655.53;5074428;28;20313;-53
2023/12/02 09:46:09;;;;;;;3.57;3.37;;;;;;;1.71;100.00;95662.06;5079719;28;20727;-53
2023/12/02 09:48:47;;;;;;;3.80;3.50;;;;;;;1.73;100.00;95670.59;5077643;28;20544;-52
2023/12/02 09:51:21;;;;;;;3.90;3.60;;;;;;;1.78;100.00;95676.28;5078041;28;20194;-53
2023/12/02 09:53:55;;;;;;;3.73;3.43;;;;;;;1.76;100.00;95679.97;5077016;28;20215;-51
2023/12/02 09:56:25;;;;;;;3.90;3.60;;;;;;;1.83;100.00;95682.00;5077451;28;20220;-53
2023/12/02 09:59:00;;;;;;;4.40;4.00;;;;;;;1.75;100.00;95688.72;5077473;28;20240;-53
2023/12/02 10:01:35;;;;;;;4.20;3.80;;;;;;;1.79;100.00;95688.38;5072056;28;20209;-51
2023/12/02 10:04:04;;;;;;;3.97;3.70;;;;;;;1.79;100.00;95688.38;5076952;28;20683;-51
2023/12/02 10:06:47;;;;;;;4.17;3.87;;;;;;;1.79;100.00;95693.59;5077224;28;20514;-52
2023/12/02 10:09:38;;;;;;;4.93;4.50;;;;;;;1.83;100.00;95700.25;5076700;28;20218;-53
2023/12/02 10:12:19;;;;;;;4.27;3.97;;;;;;;1.76;100.00;95701.66;5070327;28;20222;-52
2023/12/02 10:14:46;;;;;;;3.90;3.60;;;;;;;1.70;100.00;95701.28;5077352;28;20249;-51
2023/12/02 10:17:16;;;;;;;4.03;3.73;;;;;;;1.69;100.00;95705.66;5077967;28;20237;-51
2023/12/02 10:19:48;;;;;;;3.97;3.67;;;;;;;1.70;100.00;95706.47;5077764;28;20220;-53
2023/12/02 10:22:16;;;;;;;4.40;4.10;;;;;;;1.58;100.00;95712.56;5075911;28;20292;-52
2023/12/02 10:24:47;;;;;;;4.27;3.97;;;;;;;1.62;100.00;95714.84;5076777;28;20207;-53
2023/12/02 10:27:17;;;;;;;4.00;3.70;;;;;;;1.60;100.00;95721.94;5077182;28;20209;-53
2023/12/02 10:29:50;;;;;;;4.13;3.83;;;;;;;1.55;100.00;95718.84;5076837;28;20226;-53
2023/12/02 10:32:27;;;;;;;4.37;3.93;;;;;;;1.48;100.00;95725.44;5071124;28;20214;-52
2023/12/02 10:35:05;;;;;;;4.20;3.90;;;;;;;1.47;100.00;95721.16;5076693;28;20582;-53
2023/12/02 10:37:37;;;;;;;4.33;4.03;;;;;;;1.52;100.00;95725.09;5076846;28;20295;-53
2023/12/02 10:40:08;;;;;;;4.33;3.97;;;;;;;1.55;100.00;95729.25;5076634;28;20202;-53
2023/12/02 10:42:41;;;;;;;4.33;4.00;;;;;;;1.60;100.00;95732.34;5076732;28;20530;-53
2023/12/02 10:45:09;;;;;;;4.83;4.43;;;;;;;1.65;100.00;95735.47;5070023;28;20199;-53
2023/12/02 10:47:37;;;;;;;5.87;4.47;;;;;;;1.69;100.00;95736.09;5070465;28;20645;-53
2023/12/02 10:50:06;;;;;;;5.40;4.90;;;;;;;1.68;100.00;95730.03;5076659;28;20313;-53
2023/12/02 10:52:34;;;;;;;5.50;5.00;;;;;;;1.68;100.00;95734.41;5076093;28;20206;-53
2023/12/02 10:55:03;;;;;;;6.00;5.40;;;;;;;1.62;100.00;95733.09;5076873;28;20213;-52
2023/12/02 10:57:29;;;;;;;5.40;4.90;;;;;;;1.67;100.00;95738.78;5076020;28;20210;-51
2023/12/02 11:00:06;;;;;;;5.20;4.80;;;;;;;1.63;100.00;95752.97;5075981;28;20678;-52
2023/12/02 11:02:45;;;;;;;5.80;5.13;;;;;;;1.68;100.00;95750.88;5076458;28;20210;-54
2023/12/02 11:05:18;;;;;;;4.97;4.57;;;;;;;1.75;100.00;95757.31;5076872;28;20215;-53
2023/12/02 11:07:48;;;;;;;5.43;4.93;;;;;;;1.72;100.00;95752.31;5076075;28;20197;-51
2023/12/02 11:10:19;;;;;;;4.77;4.40;;;;;;;1.66;100.00;95755.38;5081231;28;20240;-51
2023/12/02 11:12:53;;;;;;;6.97;5.17;;;;;;;1.69;100.00;95754.31;5069966;28;20200;-54
2023/12/02 11:15:23;;;;;;;5.13;4.67;;;;;;;1.68;100.00;95756.09;5071805;28;20236;-54
2023/12/02 11:18:00;;;;;;;5.10;4.60;;;;;;;1.68;100.00;95761.31;5076246;28;20223;-53
2023/12/02 11:20:37;;;;;;;5.33;4.80;;;;;;;1.60;100.00;95758.41;5076149;28;20189;-53
2023/12/02 11:23:29;;;;;;;5.03;4.63;;;;;;;1.55;100.00;95765.75;5074300;28;20692;-53
2023/12/02 11:26:15;;;;;;;5.70;5.10;;;;;;;1.62;100.00;95763.53;5069964;28;20219;-52
2023/12/02 11:28:50;;;;;;;5.23;4.73;;;;;;;1.68;100.00;95774.34;5075738;28;20552;-54
2023/12/02 11:31:28;;;;;;;5.40;4.90;;;;;;;1.68;100.00;95781.31;5075291;28;20288;-55
2023/12/02 11:34:07;;;;;;;4.97;4.47;;;;;;;1.65;100.00;95781.53;5068363;28;20213;-55
2023/12/02 11:36:38;;;;;;;5.20;4.80;;;;;;;1.53;100.00;95788.44;5069996;28;20205;-53
2023/12/02 11:39:14;;;;;;;5.40;4.90;;;;;;;1.54;100.00;95802.31;5074970;28;20566;-53